sensor_id;sensor_type;location;lat;lon;timestamp;P1;durP1;ratioP1;P2;durP2;ratioP2
25163;SDS011;13440;50.860;13.662;2023-10-19T00:00:31;10.95;;;7.22;;
25163;SDS011;13440;50.860;13.662;2023-10-19T00:02:58;12.10;;;7.47;;
25163;SDS011;13440;50.860;13.662;2023-10-19T00:05:27;8.98;;;6.50;;
25163;SDS011;13440;50.860;13.662;2023-10-19T00:07:54;12.48;;;7.70;;
25163;SDS011;13440;50.860;13.662;2023-10-19T00:10:22;10.95;;;7.80;;
25163;SDS011;13440;50.860;13.662;2023-10-19T00:12:47;8.40;;;6.78;;
25163;SDS011;13440;50.860;13.662;2023-10-19T00:15:22;10.85;;;7.43;;
25163;SDS011;13440;50.860;13.662;2023-10-19T00:17:49;11.13;;;7.60;;
25163;SDS011;13440;50.860;13.662;2023-10-19T00:20:18;13.38;;;7.97;;
25163;SDS011;13440;50.860;13.662;2023-10-19T00:23:12;12.13;;;7.18;;
25163;SDS011;13440;50.860;13.662;2023-10-19T00:25:44;14.68;;;7.80;;
25163;SDS011;13440;50.860;13.662;2023-10-19T00:28:09;13.68;;;7.78;;
25163;SDS011;13440;50.860;13.662;2023-10-19T00:30:38;10.48;;;7.45;;
25163;SDS011;13440;50.860;13.662;2023-10-19T00:33:04;17.02;;;7.90;;
25163;SDS011;13440;50.860;13.662;2023-10-19T00:35:30;10.35;;;7.40;;
25163;SDS011;13440;50.860;13.662;2023-10-19T00:38:01;11.35;;;7.78;;
25163;SDS011;13440;50.860;13.662;2023-10-19T00:40:52;10.23;;;7.35;;
25163;SDS011;13440;50.860;13.662;2023-10-19T00:43:28;10.55;;;8.07;;
25163;SDS011;13440;50.860;13.662;2023-10-19T00:45:54;11.77;;;7.68;;
25163;SDS011;13440;50.860;13.662;2023-10-19T00:48:19;12.05;;;8.20;;
25163;SDS011;13440;50.860;13.662;2023-10-19T00:50:48;11.35;;;7.95;;
25163;SDS011;13440;50.860;13.662;2023-10-19T00:53:18;11.02;;;8.27;;
25163;SDS011;13440;50.860;13.662;2023-10-19T00:55:44;12.20;;;8.70;;
25163;SDS011;13440;50.860;13.662;2023-10-19T00:58:10;11.98;;;7.60;;
25163;SDS011;13440;50.860;13.662;2023-10-19T01:00:39;11.52;;;8.38;;
25163;SDS011;13440;50.860;13.662;2023-10-19T01:03:10;11.95;;;8.43;;
25163;SDS011;13440;50.860;13.662;2023-10-19T01:05:35;10.75;;;8.20;;
25163;SDS011;13440;50.860;13.662;2023-10-19T01:08:03;12.52;;;8.38;;
25163;SDS011;13440;50.860;13.662;2023-10-19T01:10:39;15.38;;;8.07;;
25163;SDS011;13440;50.860;13.662;2023-10-19T01:13:04;12.27;;;7.85;;
25163;SDS011;13440;50.860;13.662;2023-10-19T01:15:31;11.88;;;8.43;;
25163;SDS011;13440;50.860;13.662;2023-10-19T01:18:01;13.70;;;9.13;;
25163;SDS011;13440;50.860;13.662;2023-10-19T01:20:28;11.75;;;8.40;;
25163;SDS011;13440;50.860;13.662;2023-10-19T01:28:30;11.27;;;8.60;;
25163;SDS011;13440;50.860;13.662;2023-10-19T01:31:22;14.63;;;9.18;;
25163;SDS011;13440;50.860;13.662;2023-10-19T01:33:55;12.90;;;9.60;;
25163;SDS011;13440;50.860;13.662;2023-10-19T01:36:21;13.73;;;9.07;;
25163;SDS011;13440;50.860;13.662;2023-10-19T01:38:46;14.35;;;8.93;;
25163;SDS011;13440;50.860;13.662;2023-10-19T01:41:12;11.35;;;8.48;;
25163;SDS011;13440;50.860;13.662;2023-10-19T01:43:42;17.02;;;8.85;;
25163;SDS011;13440;50.860;13.662;2023-10-19T01:46:09;12.80;;;8.80;;
25163;SDS011;13440;50.860;13.662;2023-10-19T01:48:38;14.02;;;9.15;;
25163;SDS011;13440;50.860;13.662;2023-10-19T01:51:05;13.02;;;9.55;;
25163;SDS011;13440;50.860;13.662;2023-10-19T01:53:34;13.77;;;9.45;;
25163;SDS011;13440;50.860;13.662;2023-10-19T01:56:08;12.35;;;8.98;;
25163;SDS011;13440;50.860;13.662;2023-10-19T01:58:38;13.15;;;9.85;;
25163;SDS011;13440;50.860;13.662;2023-10-19T02:01:04;19.25;;;10.27;;
25163;SDS011;13440;50.860;13.662;2023-10-19T02:03:53;16.65;;;10.95;;
25163;SDS011;13440;50.860;13.662;2023-10-19T02:06:25;15.07;;;11.07;;
25163;SDS011;13440;50.860;13.662;2023-10-19T02:08:54;14.52;;;10.82;;
25163;SDS011;13440;50.860;13.662;2023-10-19T02:11:25;15.23;;;11.25;;
25163;SDS011;13440;50.860;13.662;2023-10-19T02:13:51;17.17;;;11.75;;
25163;SDS011;13440;50.860;13.662;2023-10-19T02:16:17;18.95;;;11.77;;
25163;SDS011;13440;50.860;13.662;2023-10-19T02:18:47;16.27;;;11.35;;
25163;SDS011;13440;50.860;13.662;2023-10-19T02:21:13;14.77;;;11.50;;
25163;SDS011;13440;50.860;13.662;2023-10-19T02:23:39;14.93;;;11.35;;
25163;SDS011;13440;50.860;13.662;2023-10-19T02:26:05;15.90;;;11.18;;
25163;SDS011;13440;50.860;13.662;2023-10-19T02:28:30;17.55;;;12.32;;
25163;SDS011;13440;50.860;13.662;2023-10-19T02:31:02;16.83;;;11.90;;
25163;SDS011;13440;50.860;13.662;2023-10-19T02:33:40;16.17;;;11.63;;
25163;SDS011;13440;50.860;13.662;2023-10-19T02:36:05;17.33;;;11.23;;
25163;SDS011;13440;50.860;13.662;2023-10-19T02:38:38;16.42;;;11.70;;
25163;SDS011;13440;50.860;13.662;2023-10-19T02:41:03;15.75;;;11.38;;
25163;SDS011;13440;50.860;13.662;2023-10-19T02:43:29;14.02;;;11.13;;
25163;SDS011;13440;50.860;13.662;2023-10-19T02:45:57;17.58;;;10.93;;
25163;SDS011;13440;50.860;13.662;2023-10-19T02:48:22;14.27;;;11.15;;
25163;SDS011;13440;50.860;13.662;2023-10-19T02:50:50;17.15;;;11.95;;
25163;SDS011;13440;50.860;13.662;2023-10-19T02:53:15;18.48;;;12.70;;
25163;SDS011;13440;50.860;13.662;2023-10-19T02:55:43;16.90;;;13.05;;
25163;SDS011;13440;50.860;13.662;2023-10-19T02:58:09;21.17;;;13.98;;
25163;SDS011;13440;50.860;13.662;2023-10-19T03:00:36;19.52;;;14.32;;
25163;SDS011;13440;50.860;13.662;2023-10-19T03:03:01;18.60;;;14.18;;
25163;SDS011;13440;50.860;13.662;2023-10-19T03:05:30;21.63;;;15.52;;
25163;SDS011;13440;50.860;13.662;2023-10-19T03:07:56;19.45;;;14.68;;
25163;SDS011;13440;50.860;13.662;2023-10-19T03:10:21;20.85;;;15.55;;
25163;SDS011;13440;50.860;13.662;2023-10-19T03:12:59;22.08;;;16.13;;
25163;SDS011;13440;50.860;13.662;2023-10-19T03:15:25;17.27;;;14.07;;
25163;SDS011;13440;50.860;13.662;2023-10-19T03:17:50;20.42;;;15.85;;
25163;SDS011;13440;50.860;13.662;2023-10-19T03:20:15;19.23;;;15.45;;
25163;SDS011;13440;50.860;13.662;2023-10-19T03:22:43;23.42;;;16.35;;
25163;SDS011;13440;50.860;13.662;2023-10-19T03:25:09;23.17;;;17.38;;
25163;SDS011;13440;50.860;13.662;2023-10-19T03:27:53;25.85;;;17.25;;
25163;SDS011;13440;50.860;13.662;2023-10-19T03:30:20;25.73;;;18.77;;
25163;SDS011;13440;50.860;13.662;2023-10-19T03:32:49;24.00;;;18.10;;
25163;SDS011;13440;50.860;13.662;2023-10-19T03:35:16;24.45;;;17.77;;
25163;SDS011;13440;50.860;13.662;2023-10-19T03:37:42;22.75;;;16.55;;
25163;SDS011;13440;50.860;13.662;2023-10-19T03:40:08;26.02;;;18.50;;
25163;SDS011;13440;50.860;13.662;2023-10-19T03:42:34;25.15;;;18.27;;
25163;SDS011;13440;50.860;13.662;2023-10-19T03:45:06;26.30;;;19.30;;
25163;SDS011;13440;50.860;13.662;2023-10-19T03:47:38;23.48;;;19.08;;
25163;SDS011;13440;50.860;13.662;2023-10-19T03:50:04;24.10;;;18.92;;
25163;SDS011;13440;50.860;13.662;2023-10-19T03:52:35;24.48;;;18.77;;
25163;SDS011;13440;50.860;13.662;2023-10-19T03:55:04;23.80;;;18.58;;
25163;SDS011;13440;50.860;13.662;2023-10-19T03:57:36;27.77;;;21.05;;
25163;SDS011;13440;50.860;13.662;2023-10-19T04:00:04;29.15;;;21.23;;
25163;SDS011;13440;50.860;13.662;2023-10-19T04:02:38;27.52;;;20.77;;
25163;SDS011;13440;50.860;13.662;2023-10-19T04:05:03;28.40;;;20.88;;
25163;SDS011;13440;50.860;13.662;2023-10-19T04:07:29;27.65;;;20.08;;
25163;SDS011;13440;50.860;13.662;2023-10-19T04:09:56;27.38;;;21.25;;
25163;SDS011;13440;50.860;13.662;2023-10-19T04:12:25;26.63;;;20.88;;
25163;SDS011;13440;50.860;13.662;2023-10-19T04:14:50;27.30;;;20.65;;
25163;SDS011;13440;50.860;13.662;2023-10-19T04:17:15;25.67;;;19.25;;
25163;SDS011;13440;50.860;13.662;2023-10-19T04:19:46;24.00;;;19.55;;
25163;SDS011;13440;50.860;13.662;2023-10-19T04:22:11;25.58;;;19.17;;
25163;SDS011;13440;50.860;13.662;2023-10-19T04:24:47;28.00;;;20.17;;
25163;SDS011;13440;50.860;13.662;2023-10-19T04:27:12;25.50;;;19.83;;
25163;SDS011;13440;50.860;13.662;2023-10-19T04:29:38;22.55;;;17.65;;
25163;SDS011;13440;50.860;13.662;2023-10-19T04:32:05;25.15;;;19.17;;
25163;SDS011;13440;50.860;13.662;2023-10-19T04:34:32;22.80;;;18.25;;
25163;SDS011;13440;50.860;13.662;2023-10-19T04:36:57;24.85;;;17.75;;
25163;SDS011;13440;50.860;13.662;2023-10-19T04:39:22;23.83;;;18.17;;
25163;SDS011;13440;50.860;13.662;2023-10-19T04:41:48;23.20;;;17.33;;
25163;SDS011;13440;50.860;13.662;2023-10-19T04:44:15;21.48;;;16.65;;
25163;SDS011;13440;50.860;13.662;2023-10-19T04:46:41;24.00;;;18.73;;
25163;SDS011;13440;50.860;13.662;2023-10-19T04:49:06;22.80;;;18.30;;
25163;SDS011;13440;50.860;13.662;2023-10-19T04:51:32;21.02;;;18.20;;
25163;SDS011;13440;50.860;13.662;2023-10-19T04:53:58;20.48;;;17.20;;
25163;SDS011;13440;50.860;13.662;2023-10-19T04:56:24;20.98;;;16.95;;
25163;SDS011;13440;50.860;13.662;2023-10-19T04:58:49;20.58;;;16.45;;
25163;SDS011;13440;50.860;13.662;2023-10-19T05:01:14;19.25;;;16.55;;
25163;SDS011;13440;50.860;13.662;2023-10-19T05:03:40;20.20;;;16.77;;
25163;SDS011;13440;50.860;13.662;2023-10-19T05:06:05;21.50;;;17.50;;
25163;SDS011;13440;50.860;13.662;2023-10-19T05:08:31;20.77;;;16.85;;
25163;SDS011;13440;50.860;13.662;2023-10-19T05:10:58;21.80;;;16.70;;
25163;SDS011;13440;50.860;13.662;2023-10-19T05:13:24;19.90;;;16.15;;
25163;SDS011;13440;50.860;13.662;2023-10-19T05:15:53;20.70;;;16.73;;
25163;SDS011;13440;50.860;13.662;2023-10-19T05:18:19;22.65;;;17.77;;
25163;SDS011;13440;50.860;13.662;2023-10-19T05:20:45;23.98;;;17.95;;
25163;SDS011;13440;50.860;13.662;2023-10-19T05:23:11;25.27;;;19.10;;
25163;SDS011;13440;50.860;13.662;2023-10-19T05:25:38;19.88;;;17.05;;
25163;SDS011;13440;50.860;13.662;2023-10-19T05:28:04;22.42;;;18.42;;
25163;SDS011;13440;50.860;13.662;2023-10-19T05:30:29;20.73;;;17.13;;
25163;SDS011;13440;50.860;13.662;2023-10-19T05:32:55;21.98;;;18.00;;
25163;SDS011;13440;50.860;13.662;2023-10-19T05:35:20;23.00;;;17.98;;
25163;SDS011;13440;50.860;13.662;2023-10-19T05:37:49;26.05;;;19.10;;
25163;SDS011;13440;50.860;13.662;2023-10-19T05:40:15;24.00;;;18.20;;
25163;SDS011;13440;50.860;13.662;2023-10-19T05:42:41;21.85;;;18.58;;
25163;SDS011;13440;50.860;13.662;2023-10-19T05:45:06;25.60;;;20.70;;
25163;SDS011;13440;50.860;13.662;2023-10-19T05:47:32;24.55;;;18.95;;
25163;SDS011;13440;50.860;13.662;2023-10-19T05:49:57;24.85;;;19.60;;
25163;SDS011;13440;50.860;13.662;2023-10-19T05:52:22;38.42;;;27.63;;
25163;SDS011;13440;50.860;13.662;2023-10-19T05:54:47;26.67;;;21.33;;
25163;SDS011;13440;50.860;13.662;2023-10-19T05:57:14;28.55;;;22.42;;
25163;SDS011;13440;50.860;13.662;2023-10-19T05:59:40;28.58;;;22.33;;
25163;SDS011;13440;50.860;13.662;2023-10-19T06:02:06;27.35;;;21.00;;
25163;SDS011;13440;50.860;13.662;2023-10-19T06:04:32;27.70;;;21.67;;
25163;SDS011;13440;50.860;13.662;2023-10-19T06:06:57;26.23;;;21.75;;
25163;SDS011;13440;50.860;13.662;2023-10-19T06:09:23;24.92;;;20.55;;
25163;SDS011;13440;50.860;13.662;2023-10-19T06:11:54;25.88;;;21.10;;
25163;SDS011;13440;50.860;13.662;2023-10-19T06:14:20;28.25;;;21.60;;
25163;SDS011;13440;50.860;13.662;2023-10-19T06:16:45;29.23;;;22.23;;
25163;SDS011;13440;50.860;13.662;2023-10-19T06:19:10;28.58;;;20.90;;
25163;SDS011;13440;50.860;13.662;2023-10-19T06:21:35;29.92;;;22.77;;
25163;SDS011;13440;50.860;13.662;2023-10-19T06:24:02;27.98;;;21.77;;
25163;SDS011;13440;50.860;13.662;2023-10-19T06:26:28;27.25;;;21.63;;
25163;SDS011;13440;50.860;13.662;2023-10-19T06:28:53;27.85;;;21.42;;
25163;SDS011;13440;50.860;13.662;2023-10-19T06:31:23;25.48;;;20.08;;
25163;SDS011;13440;50.860;13.662;2023-10-19T06:33:49;24.50;;;19.42;;
25163;SDS011;13440;50.860;13.662;2023-10-19T06:36:14;22.75;;;18.23;;
25163;SDS011;13440;50.860;13.662;2023-10-19T06:38:39;23.25;;;18.35;;
25163;SDS011;13440;50.860;13.662;2023-10-19T06:41:11;22.02;;;18.02;;
25163;SDS011;13440;50.860;13.662;2023-10-19T06:43:37;21.63;;;16.88;;
25163;SDS011;13440;50.860;13.662;2023-10-19T06:46:03;21.35;;;17.02;;
25163;SDS011;13440;50.860;13.662;2023-10-19T06:48:28;20.25;;;16.23;;
25163;SDS011;13440;50.860;13.662;2023-10-19T06:50:55;24.92;;;18.52;;
25163;SDS011;13440;50.860;13.662;2023-10-19T06:53:21;23.02;;;17.77;;
25163;SDS011;13440;50.860;13.662;2023-10-19T06:55:46;22.13;;;17.55;;
25163;SDS011;13440;50.860;13.662;2023-10-19T06:58:13;25.05;;;19.40;;
25163;SDS011;13440;50.860;13.662;2023-10-19T07:00:39;20.65;;;17.42;;
25163;SDS011;13440;50.860;13.662;2023-10-19T07:03:07;24.30;;;18.55;;
25163;SDS011;13440;50.860;13.662;2023-10-19T07:05:33;19.55;;;16.45;;
25163;SDS011;13440;50.860;13.662;2023-10-19T07:07:59;22.90;;;18.73;;
25163;SDS011;13440;50.860;13.662;2023-10-19T07:10:24;22.67;;;17.85;;
25163;SDS011;13440;50.860;13.662;2023-10-19T07:12:51;27.95;;;21.95;;
25163;SDS011;13440;50.860;13.662;2023-10-19T07:15:17;23.80;;;18.70;;
25163;SDS011;13440;50.860;13.662;2023-10-19T07:17:47;21.42;;;17.45;;
25163;SDS011;13440;50.860;13.662;2023-10-19T07:20:13;24.10;;;19.23;;
25163;SDS011;13440;50.860;13.662;2023-10-19T07:22:53;24.25;;;18.42;;
25163;SDS011;13440;50.860;13.662;2023-10-19T07:25:19;25.35;;;19.17;;
25163;SDS011;13440;50.860;13.662;2023-10-19T07:27:47;25.10;;;19.45;;
25163;SDS011;13440;50.860;13.662;2023-10-19T07:30:12;24.10;;;19.85;;
25163;SDS011;13440;50.860;13.662;2023-10-19T07:32:40;22.73;;;18.73;;
25163;SDS011;13440;50.860;13.662;2023-10-19T07:35:05;22.83;;;18.02;;
25163;SDS011;13440;50.860;13.662;2023-10-19T07:37:31;23.85;;;19.30;;
25163;SDS011;13440;50.860;13.662;2023-10-19T07:39:56;24.92;;;20.00;;
25163;SDS011;13440;50.860;13.662;2023-10-19T07:42:22;24.83;;;19.63;;
25163;SDS011;13440;50.860;13.662;2023-10-19T07:44:48;25.42;;;17.75;;
25163;SDS011;13440;50.860;13.662;2023-10-19T07:47:14;24.15;;;18.00;;
25163;SDS011;13440;50.860;13.662;2023-10-19T07:49:39;23.50;;;18.88;;
25163;SDS011;13440;50.860;13.662;2023-10-19T07:52:05;21.38;;;17.77;;
25163;SDS011;13440;50.860;13.662;2023-10-19T07:54:34;23.45;;;18.33;;
25163;SDS011;13440;50.860;13.662;2023-10-19T07:57:00;20.70;;;17.95;;
25163;SDS011;13440;50.860;13.662;2023-10-19T07:59:28;22.77;;;17.02;;
25163;SDS011;13440;50.860;13.662;2023-10-19T08:01:54;20.20;;;17.08;;
25163;SDS011;13440;50.860;13.662;2023-10-19T08:04:19;21.95;;;16.85;;
25163;SDS011;13440;50.860;13.662;2023-10-19T08:06:44;18.05;;;15.73;;
25163;SDS011;13440;50.860;13.662;2023-10-19T08:09:09;19.52;;;15.88;;
25163;SDS011;13440;50.860;13.662;2023-10-19T08:11:36;19.27;;;15.23;;
25163;SDS011;13440;50.860;13.662;2023-10-19T08:14:01;17.60;;;14.95;;
25163;SDS011;13440;50.860;13.662;2023-10-19T08:16:27;19.08;;;14.82;;
25163;SDS011;13440;50.860;13.662;2023-10-19T08:18:52;15.90;;;14.20;;
25163;SDS011;13440;50.860;13.662;2023-10-19T08:21:18;15.57;;;13.55;;
25163;SDS011;13440;50.860;13.662;2023-10-19T08:23:43;16.58;;;13.07;;
25163;SDS011;13440;50.860;13.662;2023-10-19T08:26:10;16.13;;;13.15;;
25163;SDS011;13440;50.860;13.662;2023-10-19T08:28:35;15.55;;;13.57;;
25163;SDS011;13440;50.860;13.662;2023-10-19T08:31:01;15.32;;;13.23;;
25163;SDS011;13440;50.860;13.662;2023-10-19T08:33:27;16.50;;;13.10;;
25163;SDS011;13440;50.860;13.662;2023-10-19T08:35:55;16.60;;;14.52;;
25163;SDS011;13440;50.860;13.662;2023-10-19T08:38:22;17.23;;;15.40;;
25163;SDS011;13440;50.860;13.662;2023-10-19T08:40:48;13.55;;;12.10;;
25163;SDS011;13440;50.860;13.662;2023-10-19T08:43:14;15.70;;;13.63;;
25163;SDS011;13440;50.860;13.662;2023-10-19T08:45:43;15.80;;;13.48;;
25163;SDS011;13440;50.860;13.662;2023-10-19T08:48:08;12.98;;;11.55;;
25163;SDS011;13440;50.860;13.662;2023-10-19T08:50:34;14.40;;;12.00;;
25163;SDS011;13440;50.860;13.662;2023-10-19T08:53:00;13.52;;;11.32;;
25163;SDS011;13440;50.860;13.662;2023-10-19T08:55:28;13.27;;;11.18;;
25163;SDS011;13440;50.860;13.662;2023-10-19T08:57:55;12.55;;;10.13;;
25163;SDS011;13440;50.860;13.662;2023-10-19T09:00:20;10.27;;;9.18;;
25163;SDS011;13440;50.860;13.662;2023-10-19T09:02:51;11.30;;;9.23;;
25163;SDS011;13440;50.860;13.662;2023-10-19T09:05:16;9.85;;;8.75;;
25163;SDS011;13440;50.860;13.662;2023-10-19T09:07:51;10.63;;;8.95;;
25163;SDS011;13440;50.860;13.662;2023-10-19T09:10:20;11.90;;;10.15;;
25163;SDS011;13440;50.860;13.662;2023-10-19T09:12:55;10.00;;;9.00;;
25163;SDS011;13440;50.860;13.662;2023-10-19T09:15:23;10.43;;;9.30;;
25163;SDS011;13440;50.860;13.662;2023-10-19T09:17:48;10.07;;;8.82;;
25163;SDS011;13440;50.860;13.662;2023-10-19T09:20:14;9.55;;;8.55;;
25163;SDS011;13440;50.860;13.662;2023-10-19T09:22:52;10.18;;;9.18;;
25163;SDS011;13440;50.860;13.662;2023-10-19T09:25:18;11.80;;;9.82;;
25163;SDS011;13440;50.860;13.662;2023-10-19T09:27:43;13.07;;;10.88;;
25163;SDS011;13440;50.860;13.662;2023-10-19T09:30:09;10.88;;;9.75;;
25163;SDS011;13440;50.860;13.662;2023-10-19T09:32:36;13.55;;;10.43;;
25163;SDS011;13440;50.860;13.662;2023-10-19T09:35:02;14.60;;;11.82;;
25163;SDS011;13440;50.860;13.662;2023-10-19T09:37:27;12.68;;;11.27;;
25163;SDS011;13440;50.860;13.662;2023-10-19T09:39:54;13.63;;;10.82;;
25163;SDS011;13440;50.860;13.662;2023-10-19T09:42:19;12.07;;;10.88;;
25163;SDS011;13440;50.860;13.662;2023-10-19T09:44:54;12.95;;;10.80;;
25163;SDS011;13440;50.860;13.662;2023-10-19T09:47:22;12.52;;;11.23;;
25163;SDS011;13440;50.860;13.662;2023-10-19T09:49:51;13.75;;;11.70;;
25163;SDS011;13440;50.860;13.662;2023-10-19T09:52:16;14.75;;;11.85;;
25163;SDS011;13440;50.860;13.662;2023-10-19T09:54:50;14.07;;;12.45;;
25163;SDS011;13440;50.860;13.662;2023-10-19T09:57:19;13.98;;;12.05;;
25163;SDS011;13440;50.860;13.662;2023-10-19T09:59:49;14.05;;;12.60;;
25163;SDS011;13440;50.860;13.662;2023-10-19T10:02:16;15.88;;;13.23;;
25163;SDS011;13440;50.860;13.662;2023-10-19T10:04:43;13.90;;;12.40;;
25163;SDS011;13440;50.860;13.662;2023-10-19T10:07:10;14.40;;;12.50;;
25163;SDS011;13440;50.860;13.662;2023-10-19T10:09:36;16.20;;;14.32;;
25163;SDS011;13440;50.860;13.662;2023-10-19T10:12:25;15.52;;;13.90;;
25163;SDS011;13440;50.860;13.662;2023-10-19T10:15:02;20.23;;;15.45;;
25163;SDS011;13440;50.860;13.662;2023-10-19T10:17:32;17.17;;;15.20;;
25163;SDS011;13440;50.860;13.662;2023-10-19T10:20:28;16.80;;;14.95;;
25163;SDS011;13440;50.860;13.662;2023-10-19T10:25:34;17.42;;;14.75;;
25163;SDS011;13440;50.860;13.662;2023-10-19T10:27:59;15.80;;;13.98;;
25163;SDS011;13440;50.860;13.662;2023-10-19T10:30:24;17.33;;;15.40;;
25163;SDS011;13440;50.860;13.662;2023-10-19T10:32:50;16.00;;;14.30;;
25163;SDS011;13440;50.860;13.662;2023-10-19T10:35:53;17.90;;;14.18;;
25163;SDS011;13440;50.860;13.662;2023-10-19T10:38:15;16.42;;;13.95;;
25163;SDS011;13440;50.860;13.662;2023-10-19T10:40:44;17.25;;;14.43;;
25163;SDS011;13440;50.860;13.662;2023-10-19T10:43:10;16.25;;;13.75;;
25163;SDS011;13440;50.860;13.662;2023-10-19T10:45:36;16.77;;;14.98;;
25163;SDS011;13440;50.860;13.662;2023-10-19T10:48:01;17.10;;;14.07;;
25163;SDS011;13440;50.860;13.662;2023-10-19T10:50:26;15.45;;;13.77;;
25163;SDS011;13440;50.860;13.662;2023-10-19T10:52:53;16.50;;;14.00;;
25163;SDS011;13440;50.860;13.662;2023-10-19T10:55:22;15.35;;;13.65;;
25163;SDS011;13440;50.860;13.662;2023-10-19T10:57:49;15.05;;;12.95;;
25163;SDS011;13440;50.860;13.662;2023-10-19T11:00:14;16.52;;;12.55;;
25163;SDS011;13440;50.860;13.662;2023-10-19T11:02:40;14.40;;;12.90;;
25163;SDS011;13440;50.860;13.662;2023-10-19T11:05:11;13.32;;;12.00;;
25163;SDS011;13440;50.860;13.662;2023-10-19T11:07:39;14.32;;;12.13;;
25163;SDS011;13440;50.860;13.662;2023-10-19T11:10:05;13.80;;;12.30;;
25163;SDS011;13440;50.860;13.662;2023-10-19T11:12:31;13.27;;;11.90;;
25163;SDS011;13440;50.860;13.662;2023-10-19T11:14:57;12.52;;;11.27;;
25163;SDS011;13440;50.860;13.662;2023-10-19T11:17:25;13.48;;;11.43;;
25163;SDS011;13440;50.860;13.662;2023-10-19T11:19:56;13.13;;;10.32;;
25163;SDS011;13440;50.860;13.662;2023-10-19T11:22:22;11.88;;;10.68;;
25163;SDS011;13440;50.860;13.662;2023-10-19T11:24:50;12.40;;;11.10;;
25163;SDS011;13440;50.860;13.662;2023-10-19T11:27:21;13.30;;;10.93;;
25163;SDS011;13440;50.860;13.662;2023-10-19T11:29:57;11.82;;;10.57;;
25163;SDS011;13440;50.860;13.662;2023-10-19T11:32:23;14.07;;;10.73;;
25163;SDS011;13440;50.860;13.662;2023-10-19T11:34:51;11.90;;;10.70;;
25163;SDS011;13440;50.860;13.662;2023-10-19T11:37:16;11.80;;;10.30;;
25163;SDS011;13440;50.860;13.662;2023-10-19T11:39:43;12.55;;;10.57;;
25163;SDS011;13440;50.860;13.662;2023-10-19T11:42:08;11.75;;;10.55;;
25163;SDS011;13440;50.860;13.662;2023-10-19T11:44:35;10.82;;;9.50;;
25163;SDS011;13440;50.860;13.662;2023-10-19T11:47:01;13.30;;;11.13;;
25163;SDS011;13440;50.860;13.662;2023-10-19T11:49:27;11.88;;;10.27;;
25163;SDS011;13440;50.860;13.662;2023-10-19T11:51:52;12.88;;;9.50;;
25163;SDS011;13440;50.860;13.662;2023-10-19T11:54:17;10.85;;;9.75;;
25163;SDS011;13440;50.860;13.662;2023-10-19T11:56:43;10.65;;;9.45;;
25163;SDS011;13440;50.860;13.662;2023-10-19T11:59:09;15.57;;;11.80;;
25163;SDS011;13440;50.860;13.662;2023-10-19T12:01:37;11.95;;;10.75;;
25163;SDS011;13440;50.860;13.662;2023-10-19T12:04:03;11.98;;;10.77;;
25163;SDS011;13440;50.860;13.662;2023-10-19T12:06:30;12.48;;;10.80;;
25163;SDS011;13440;50.860;13.662;2023-10-19T12:08:56;11.93;;;10.10;;
25163;SDS011;13440;50.860;13.662;2023-10-19T12:11:24;12.43;;;11.13;;
25163;SDS011;13440;50.860;13.662;2023-10-19T12:13:49;10.85;;;9.75;;
25163;SDS011;13440;50.860;13.662;2023-10-19T12:16:14;12.60;;;10.70;;
25163;SDS011;13440;50.860;13.662;2023-10-19T12:18:41;10.90;;;9.80;;
25163;SDS011;13440;50.860;13.662;2023-10-19T12:21:07;10.82;;;9.35;;
25163;SDS011;13440;50.860;13.662;2023-10-19T12:23:36;11.52;;;10.25;;
25163;SDS011;13440;50.860;13.662;2023-10-19T12:26:03;10.32;;;9.23;;
25163;SDS011;13440;50.860;13.662;2023-10-19T12:28:33;11.57;;;10.38;;
25163;SDS011;13440;50.860;13.662;2023-10-19T12:30:58;11.30;;;10.10;;
25163;SDS011;13440;50.860;13.662;2023-10-19T12:33:24;11.98;;;10.70;;
25163;SDS011;13440;50.860;13.662;2023-10-19T12:35:49;19.90;;;18.20;;
25163;SDS011;13440;50.860;13.662;2023-10-19T12:38:16;15.27;;;13.77;;
25163;SDS011;13440;50.860;13.662;2023-10-19T12:40:46;12.20;;;11.00;;
25163;SDS011;13440;50.860;13.662;2023-10-19T12:43:12;10.52;;;9.52;;
25163;SDS011;13440;50.860;13.662;2023-10-19T12:45:37;9.73;;;8.73;;
25163;SDS011;13440;50.860;13.662;2023-10-19T12:48:03;10.38;;;9.13;;
25163;SDS011;13440;50.860;13.662;2023-10-19T12:50:29;10.30;;;8.55;;
25163;SDS011;13440;50.860;13.662;2023-10-19T12:52:55;8.18;;;7.47;;
25163;SDS011;13440;50.860;13.662;2023-10-19T12:55:21;8.50;;;7.70;;
25163;SDS011;13440;50.860;13.662;2023-10-19T12:57:46;9.43;;;8.52;;
25163;SDS011;13440;50.860;13.662;2023-10-19T13:00:11;8.70;;;7.90;;
25163;SDS011;13440;50.860;13.662;2023-10-19T13:02:50;9.10;;;8.20;;
25163;SDS011;13440;50.860;13.662;2023-10-19T13:05:16;8.50;;;7.70;;
25163;SDS011;13440;50.860;13.662;2023-10-19T13:07:43;7.35;;;6.65;;
25163;SDS011;13440;50.860;13.662;2023-10-19T13:10:09;8.10;;;7.05;;
25163;SDS011;13440;50.860;13.662;2023-10-19T13:12:34;7.60;;;6.65;;
25163;SDS011;13440;50.860;13.662;2023-10-19T13:15:01;7.05;;;6.32;;
25163;SDS011;13440;50.860;13.662;2023-10-19T13:17:27;6.95;;;6.20;;
25163;SDS011;13440;50.860;13.662;2023-10-19T13:19:52;7.00;;;6.30;;
25163;SDS011;13440;50.860;13.662;2023-10-19T13:22:20;7.20;;;6.50;;
25163;SDS011;13440;50.860;13.662;2023-10-19T13:24:46;7.35;;;6.63;;
25163;SDS011;13440;50.860;13.662;2023-10-19T13:27:12;9.00;;;6.95;;
25163;SDS011;13440;50.860;13.662;2023-10-19T13:29:37;8.00;;;6.60;;
25163;SDS011;13440;50.860;13.662;2023-10-19T13:32:05;7.43;;;6.60;;
25163;SDS011;13440;50.860;13.662;2023-10-19T13:34:30;9.82;;;7.40;;
25163;SDS011;13440;50.860;13.662;2023-10-19T13:36:55;7.97;;;7.15;;
25163;SDS011;13440;50.860;13.662;2023-10-19T13:39:22;7.95;;;7.18;;
25163;SDS011;13440;50.860;13.662;2023-10-19T13:41:50;10.32;;;7.97;;
25163;SDS011;13440;50.860;13.662;2023-10-19T13:44:17;9.23;;;7.40;;
25163;SDS011;13440;50.860;13.662;2023-10-19T13:46:45;9.07;;;7.65;;
25163;SDS011;13440;50.860;13.662;2023-10-19T13:49:10;8.35;;;7.55;;
25163;SDS011;13440;50.860;13.662;2023-10-19T13:51:36;8.13;;;7.32;;
25163;SDS011;13440;50.860;13.662;2023-10-19T13:54:01;9.75;;;7.47;;
25163;SDS011;13440;50.860;13.662;2023-10-19T13:56:26;8.73;;;7.43;;
25163;SDS011;13440;50.860;13.662;2023-10-19T13:58:52;7.57;;;6.80;;
25163;SDS011;13440;50.860;13.662;2023-10-19T14:01:17;7.20;;;6.55;;
25163;SDS011;13440;50.860;13.662;2023-10-19T14:03:43;8.88;;;7.90;;
25163;SDS011;13440;50.860;13.662;2023-10-19T14:06:11;7.95;;;7.15;;
25163;SDS011;13440;50.860;13.662;2023-10-19T14:08:37;7.88;;;7.07;;
25163;SDS011;13440;50.860;13.662;2023-10-19T14:11:03;9.37;;;7.17;;
25163;SDS011;13440;50.860;13.662;2023-10-19T14:13:28;7.95;;;7.05;;
25163;SDS011;13440;50.860;13.662;2023-10-19T14:15:54;8.40;;;7.32;;
25163;SDS011;13440;50.860;13.662;2023-10-19T14:18:19;8.68;;;6.97;;
25163;SDS011;13440;50.860;13.662;2023-10-19T14:20:45;7.65;;;6.95;;
25163;SDS011;13440;50.860;13.662;2023-10-19T14:23:10;7.67;;;6.93;;